Impacts METAR Board
IDs:

KRYW - Lago Vista/Allen Arp, TX, US

Updated at: 2300 UTC 18 Oct 2019
Potential Impact None Slight Moderate High
Time 18/11Z 18/12Z 18/13Z 18/14Z 18/15Z 18/16Z 18/17Z 18/18Z 18/19Z 18/20Z 18/21Z 18/22Z 18/23Z
Temp50 51 51 56 60 64 70 72 75 77 79 79 78
Dewpt46 46 47 49 50 49 49 48 51 50 51 51 54
Altim29.90 29.90 29.89 29.91 29.91 29.90 29.87 29.86 29.82 29.79 29.76 29.75 29.74
VIS10 10 10 10 10 10 10 10 10 10 10 10 10
CIG-- -- -- -- -- -- -- -- -- -- -- -- --
CoverCLRCLRCLRCLRCLRCLRCLRCLRCLRCLRCLRCLRCLR
FltCatVFRVFRVFRVFRVFRVFRVFRVFRVFRVFRVFRVFRVFR
WX--------------------------
WDir9000001101200140120140130140
WSpd3 0 0 0 0 3 4 0 6 6 6 5 6
WGst-- -- -- -- -- -- -- -- -- -- -- -- --
Raw hourly METARs
KRYW 181055Z AUTO 09003KT 10SM CLR 10/08 A2990 RMK AO2 T01020076
KRYW 181155Z AUTO 00000KT 10SM CLR 11/08 A2990 RMK AO2 T01070078 10131 20100
KRYW 181255Z AUTO 00000KT 10SM CLR 11/09 A2989 RMK AO2 T01050085
KRYW 181355Z AUTO 00000KT 10SM CLR 13/10 A2991 RMK AO2 T01340097
KRYW 181455Z AUTO 00000KT 10SM CLR 16/10 A2991 RMK AO2 T01570101
KRYW 181555Z AUTO 11003KT 10SM CLR 18/09 A2990 RMK AO2 T01800093
KRYW 181655Z AUTO 12004KT 10SM CLR 21/09 A2987 RMK AO2 T02120092
KRYW 181755Z AUTO 00000KT 10SM CLR 22/09 A2986 RMK AO2 T02220091 10230 20102
KRYW 181855Z AUTO 14006KT 10SM CLR 24/11 A2982 RMK AO2 T02410107
KRYW 181955Z AUTO 12006KT 10SM CLR 25/10 A2979 RMK AO2 T02480098
KRYW 182055Z AUTO 14006KT 10SM CLR 26/10 A2976 RMK AO2 T02590103
KRYW 182155Z AUTO 13005KT 10SM CLR 26/11 A2975 RMK AO2 T02600107
KRYW 182255Z AUTO 14006KT 10SM CLR 26/12 A2974 RMK AO2 T02550120